sensor_id;sensor_type;location;lat;lon;timestamp;pressure;altitude;pressure_sealevel;temperature;humidity
37832;BME280;23671;38.090;-122.570;2023-02-18T00:17:27;101718.69;;;14.35;60.71
37832;BME280;23671;38.090;-122.570;2023-02-18T00:19:56;101717.81;;;14.35;61.29
37832;BME280;23671;38.090;-122.570;2023-02-18T00:22:24;101711.44;;;14.37;60.03
37832;BME280;23671;38.090;-122.570;2023-02-18T00:24:51;101718.69;;;14.35;61.21
37832;BME280;23671;38.090;-122.570;2023-02-18T00:27:18;101709.63;;;14.38;60.91
37832;BME280;23671;38.090;-122.570;2023-02-18T00:29:45;101708.19;;;14.34;61.45
37832;BME280;23671;38.090;-122.570;2023-02-18T00:32:12;101714.44;;;14.33;60.96
37832;BME280;23671;38.090;-122.570;2023-02-18T00:34:39;101709.25;;;14.31;61.38
37832;BME280;23671;38.090;-122.570;2023-02-18T00:37:06;101709.25;;;14.31;61.27
37832;BME280;23671;38.090;-122.570;2023-02-18T00:39:33;101717.22;;;14.31;61.91
37832;BME280;23671;38.090;-122.570;2023-02-18T00:42:00;101713.84;;;14.29;61.63
37832;BME280;23671;38.090;-122.570;2023-02-18T00:44:27;101711.31;;;14.28;61.73
37832;BME280;23671;38.090;-122.570;2023-02-18T00:46:54;101704.38;;;14.25;62.38
37832;BME280;23671;38.090;-122.570;2023-02-18T00:49:21;101714.28;;;14.23;62.11
37832;BME280;23671;38.090;-122.570;2023-02-18T00:51:48;101710.81;;;14.23;61.87
37832;BME280;23671;38.090;-122.570;2023-02-18T00:54:15;101704.78;;;14.21;62.11
37832;BME280;23671;38.090;-122.570;2023-02-18T00:56:42;101713.69;;;14.20;62.61
37832;BME280;23671;38.090;-122.570;2023-02-18T00:59:09;101718.88;;;14.21;62.22
37832;BME280;23671;38.090;-122.570;2023-02-18T01:01:36;101713.56;;;14.21;62.33
37832;BME280;23671;38.090;-122.570;2023-02-18T01:04:04;101705.25;;;14.15;62.24
37832;BME280;23671;38.090;-122.570;2023-02-18T01:06:31;101705.97;;;14.17;62.64
37832;BME280;23671;38.090;-122.570;2023-02-18T01:08:58;101704.66;;;14.11;63.04
37832;BME280;23671;38.090;-122.570;2023-02-18T01:11:25;101712.72;;;14.10;62.43
37832;BME280;23671;38.090;-122.570;2023-02-18T01:13:52;101699.81;;;14.05;62.63
37832;BME280;23671;38.090;-122.570;2023-02-18T01:16:38;101700.88;;;14.03;62.25
37832;BME280;23671;38.090;-122.570;2023-02-18T01:19:05;101707.53;;;13.97;62.87
37832;BME280;23671;38.090;-122.570;2023-02-18T01:21:32;101705.94;;;13.95;62.38
37832;BME280;23671;38.090;-122.570;2023-02-18T01:23:59;101707.88;;;13.93;62.38
37832;BME280;23671;38.090;-122.570;2023-02-18T01:26:26;101705.34;;;13.91;62.60
37832;BME280;23671;38.090;-122.570;2023-02-18T01:28:53;101711.63;;;13.90;62.98
37832;BME280;23671;38.090;-122.570;2023-02-18T01:31:20;101718.97;;;13.87;62.36
37832;BME280;23671;38.090;-122.570;2023-02-18T01:33:47;101722.00;;;13.82;62.30
37832;BME280;23671;38.090;-122.570;2023-02-18T01:36:17;101717.88;;;13.78;62.15
37832;BME280;23671;38.090;-122.570;2023-02-18T01:38:44;101728.63;;;13.77;62.35
37832;BME280;23671;38.090;-122.570;2023-02-18T01:41:11;101722.78;;;13.72;62.74
37832;BME280;23671;38.090;-122.570;2023-02-18T01:43:38;101728.34;;;13.68;62.98
37832;BME280;23671;38.090;-122.570;2023-02-18T01:46:12;101725.91;;;13.65;63.12
37832;BME280;23671;38.090;-122.570;2023-02-18T01:51:22;101735.56;;;13.66;61.45
37832;BME280;23671;38.090;-122.570;2023-02-18T01:56:34;101731.19;;;13.54;62.24
37832;BME280;23671;38.090;-122.570;2023-02-18T01:59:09;101735.03;;;13.50;61.33
37832;BME280;23671;38.090;-122.570;2023-02-18T02:01:38;101740.56;;;13.47;61.08
37832;BME280;23671;38.090;-122.570;2023-02-18T02:04:08;101749.72;;;13.43;61.90
37832;BME280;23671;38.090;-122.570;2023-02-18T02:06:35;101742.94;;;13.39;60.97
37832;BME280;23671;38.090;-122.570;2023-02-18T02:09:04;101745.81;;;13.36;61.14
37832;BME280;23671;38.090;-122.570;2023-02-18T02:17:04;101750.13;;;13.26;60.53
37832;BME280;23671;38.090;-122.570;2023-02-18T02:38:39;101773.66;;;12.95;60.40
37832;BME280;23671;38.090;-122.570;2023-02-18T02:44:21;101774.22;;;12.87;60.68
37832;BME280;23671;38.090;-122.570;2023-02-18T02:47:00;101777.16;;;12.82;60.90
37832;BME280;23671;38.090;-122.570;2023-02-18T02:52:38;101773.28;;;12.75;60.50
37832;BME280;23671;38.090;-122.570;2023-02-18T02:55:11;101777.09;;;12.71;60.85
37832;BME280;23671;38.090;-122.570;2023-02-18T02:57:51;101781.91;;;12.66;60.42
37832;BME280;23671;38.090;-122.570;2023-02-18T03:00:46;101782.22;;;12.62;60.69
37832;BME280;23671;38.090;-122.570;2023-02-18T03:08:53;101778.09;;;12.45;59.88
37832;BME280;23671;38.090;-122.570;2023-02-18T03:11:27;101772.88;;;12.44;60.43
37832;BME280;23671;38.090;-122.570;2023-02-18T03:14:21;101772.06;;;12.43;59.84
37832;BME280;23671;38.090;-122.570;2023-02-18T03:16:58;101773.00;;;12.42;59.61
37832;BME280;23671;38.090;-122.570;2023-02-18T03:20:03;101775.25;;;12.36;59.68
37832;BME280;23671;38.090;-122.570;2023-02-18T03:22:43;101771.13;;;12.32;59.19
37832;BME280;23671;38.090;-122.570;2023-02-18T03:25:13;101775.97;;;12.25;59.44
37832;BME280;23671;38.090;-122.570;2023-02-18T03:30:50;101781.19;;;12.14;59.64
37832;BME280;23671;38.090;-122.570;2023-02-18T03:33:30;101772.69;;;12.09;59.57
37832;BME280;23671;38.090;-122.570;2023-02-18T03:35:59;101775.84;;;12.02;58.99
37832;BME280;23671;38.090;-122.570;2023-02-18T03:38:48;101777.25;;;11.95;59.51
37832;BME280;23671;38.090;-122.570;2023-02-18T03:41:16;101786.44;;;11.89;59.03
37832;BME280;23671;38.090;-122.570;2023-02-18T03:43:54;101785.13;;;11.82;59.27
37832;BME280;23671;38.090;-122.570;2023-02-18T03:46:27;101778.47;;;11.76;59.45
37832;BME280;23671;38.090;-122.570;2023-02-18T03:48:55;101786.81;;;11.70;59.48
37832;BME280;23671;38.090;-122.570;2023-02-18T03:51:22;101772.16;;;11.65;58.86
37832;BME280;23671;38.090;-122.570;2023-02-18T03:53:49;101783.06;;;11.60;58.88
37832;BME280;23671;38.090;-122.570;2023-02-18T03:56:16;101793.84;;;11.57;59.21
37832;BME280;23671;38.090;-122.570;2023-02-18T03:58:43;101791.81;;;11.48;59.29
37832;BME280;23671;38.090;-122.570;2023-02-18T04:01:10;101785.13;;;11.43;58.83
37832;BME280;23671;38.090;-122.570;2023-02-18T04:03:37;101785.53;;;11.37;59.08
37832;BME280;23671;38.090;-122.570;2023-02-18T04:06:05;101800.00;;;11.31;59.14
37832;BME280;23671;38.090;-122.570;2023-02-18T04:08:32;101795.84;;;11.27;58.98
37832;BME280;23671;38.090;-122.570;2023-02-18T04:10:59;101787.47;;;11.21;59.37
37832;BME280;23671;38.090;-122.570;2023-02-18T04:13:27;101792.50;;;11.11;59.27
37832;BME280;23671;38.090;-122.570;2023-02-18T04:15:54;101789.97;;;11.10;59.17
37832;BME280;23671;38.090;-122.570;2023-02-18T04:18:21;101796.38;;;11.06;59.15
37832;BME280;23671;38.090;-122.570;2023-02-18T04:20:49;101793.19;;;11.01;58.81
37832;BME280;23671;38.090;-122.570;2023-02-18T04:23:16;101780.28;;;10.96;59.13
37832;BME280;23671;38.090;-122.570;2023-02-18T04:25:43;101785.00;;;10.91;59.17
37832;BME280;23671;38.090;-122.570;2023-02-18T04:28:14;101788.88;;;10.85;59.10
37832;BME280;23671;38.090;-122.570;2023-02-18T04:30:46;101783.69;;;10.84;59.35
37832;BME280;23671;38.090;-122.570;2023-02-18T04:33:13;101791.97;;;10.78;59.09
37832;BME280;23671;38.090;-122.570;2023-02-18T04:35:41;101785.31;;;10.72;59.06
37832;BME280;23671;38.090;-122.570;2023-02-18T04:38:09;101785.50;;;10.69;59.05
37832;BME280;23671;38.090;-122.570;2023-02-18T04:40:37;101790.03;;;10.67;58.95
37832;BME280;23671;38.090;-122.570;2023-02-18T04:43:04;101782.38;;;10.63;58.75
37832;BME280;23671;38.090;-122.570;2023-02-18T04:45:32;101785.34;;;10.58;58.74
37832;BME280;23671;38.090;-122.570;2023-02-18T04:47:59;101779.47;;;10.53;58.94
37832;BME280;23671;38.090;-122.570;2023-02-18T04:50:26;101790.22;;;10.50;58.84
37832;BME280;23671;38.090;-122.570;2023-02-18T04:52:54;101789.66;;;10.45;58.64
37832;BME280;23671;38.090;-122.570;2023-02-18T04:55:21;101794.38;;;10.40;58.55
37832;BME280;23671;38.090;-122.570;2023-02-18T04:57:48;101794.66;;;10.36;59.13
37832;BME280;23671;38.090;-122.570;2023-02-18T05:00:18;101785.22;;;10.32;58.74
37832;BME280;23671;38.090;-122.570;2023-02-18T05:02:46;101797.84;;;10.27;58.61
37832;BME280;23671;38.090;-122.570;2023-02-18T05:05:13;101798.13;;;10.22;58.91
37832;BME280;23671;38.090;-122.570;2023-02-18T05:07:40;101789.75;;;10.16;58.65
37832;BME280;23671;38.090;-122.570;2023-02-18T05:10:09;101789.16;;;10.11;58.89
37832;BME280;23671;38.090;-122.570;2023-02-18T05:12:37;101785.91;;;10.05;58.94
37832;BME280;23671;38.090;-122.570;2023-02-18T05:15:04;101776.69;;;9.98;59.11
37832;BME280;23671;38.090;-122.570;2023-02-18T05:17:31;101785.63;;;9.96;58.91
37832;BME280;23671;38.090;-122.570;2023-02-18T05:19:58;101785.88;;;9.91;59.33
37832;BME280;23671;38.090;-122.570;2023-02-18T05:22:25;101787.28;;;9.83;59.32
37832;BME280;23671;38.090;-122.570;2023-02-18T05:24:53;101797.34;;;9.76;58.93
37832;BME280;23671;38.090;-122.570;2023-02-18T05:27:20;101797.53;;;9.73;59.11
37832;BME280;23671;38.090;-122.570;2023-02-18T05:29:47;101795.16;;;9.69;59.03
37832;BME280;23671;38.090;-122.570;2023-02-18T05:32:14;101798.81;;;9.66;58.84
37832;BME280;23671;38.090;-122.570;2023-02-18T05:34:41;101798.25;;;9.61;59.62
37832;BME280;23671;38.090;-122.570;2023-02-18T05:37:08;101791.44;;;9.57;59.55
37832;BME280;23671;38.090;-122.570;2023-02-18T05:39:35;101798.69;;;9.54;58.95
37832;BME280;23671;38.090;-122.570;2023-02-18T05:42:02;101795.44;;;9.49;59.61
37832;BME280;23671;38.090;-122.570;2023-02-18T05:44:29;101790.47;;;9.44;59.49
37832;BME280;23671;38.090;-122.570;2023-02-18T05:47:01;101794.97;;;9.42;59.62
37832;BME280;23671;38.090;-122.570;2023-02-18T05:49:30;101791.81;;;9.36;59.48
37832;BME280;23671;38.090;-122.570;2023-02-18T05:51:58;101790.28;;;9.32;59.06
37832;BME280;23671;38.090;-122.570;2023-02-18T05:54:26;101790.63;;;9.26;59.50
37832;BME280;23671;38.090;-122.570;2023-02-18T05:56:54;101790.81;;;9.23;59.23
37832;BME280;23671;38.090;-122.570;2023-02-18T05:59:22;101792.78;;;9.19;59.00
37832;BME280;23671;38.090;-122.570;2023-02-18T06:01:49;101794.81;;;9.14;59.56
37832;BME280;23671;38.090;-122.570;2023-02-18T06:04:16;101799.34;;;9.12;58.93
37832;BME280;23671;38.090;-122.570;2023-02-18T06:06:44;101805.88;;;9.05;59.38
37832;BME280;23671;38.090;-122.570;2023-02-18T06:09:11;101802.75;;;8.98;59.90
37832;BME280;23671;38.090;-122.570;2023-02-18T06:11:38;101803.84;;;8.94;59.17
37832;BME280;23671;38.090;-122.570;2023-02-18T06:14:05;101806.63;;;8.91;59.78
37832;BME280;23671;38.090;-122.570;2023-02-18T06:16:32;101797.28;;;8.86;59.33
37832;BME280;23671;38.090;-122.570;2023-02-18T06:19:00;101803.63;;;8.82;59.87
37832;BME280;23671;38.090;-122.570;2023-02-18T06:21:27;101791.66;;;8.76;59.59
37832;BME280;23671;38.090;-122.570;2023-02-18T06:23:54;101806.88;;;8.71;59.55
37832;BME280;23671;38.090;-122.570;2023-02-18T06:26:21;101812.38;;;8.67;59.74
37832;BME280;23671;38.090;-122.570;2023-02-18T06:28:48;101816.09;;;8.63;59.98
37832;BME280;23671;38.090;-122.570;2023-02-18T06:31:15;101812.03;;;8.57;60.41
37832;BME280;23671;38.090;-122.570;2023-02-18T06:33:42;101813.13;;;8.53;59.85
37832;BME280;23671;38.090;-122.570;2023-02-18T06:36:11;101810.47;;;8.53;60.31
37832;BME280;23671;38.090;-122.570;2023-02-18T06:38:40;101819.47;;;8.49;59.54
37832;BME280;23671;38.090;-122.570;2023-02-18T06:41:08;101814.38;;;8.46;59.91
37832;BME280;23671;38.090;-122.570;2023-02-18T06:43:36;101812.75;;;8.44;59.50
37832;BME280;23671;38.090;-122.570;2023-02-18T06:46:04;101805.19;;;8.38;59.73
37832;BME280;23671;38.090;-122.570;2023-02-18T06:48:31;101801.94;;;8.33;60.29
37832;BME280;23671;38.090;-122.570;2023-02-18T06:50:59;101801.25;;;8.29;60.13
37832;BME280;23671;38.090;-122.570;2023-02-18T06:53:26;101809.16;;;8.29;59.74
37832;BME280;23671;38.090;-122.570;2023-02-18T06:55:53;101804.81;;;8.28;60.05
37832;BME280;23671;38.090;-122.570;2023-02-18T06:58:20;101805.19;;;8.20;60.36
37832;BME280;23671;38.090;-122.570;2023-02-18T07:00:48;101807.97;;;8.17;60.19
37832;BME280;23671;38.090;-122.570;2023-02-18T07:03:16;101804.72;;;8.12;60.58
37832;BME280;23671;38.090;-122.570;2023-02-18T07:05:43;101804.88;;;8.09;60.50
37832;BME280;23671;38.090;-122.570;2023-02-18T07:08:10;101803.16;;;8.08;60.30
37832;BME280;23671;38.090;-122.570;2023-02-18T07:10:37;101808.59;;;8.05;60.44
37832;BME280;23671;38.090;-122.570;2023-02-18T07:13:05;101803.25;;;8.07;59.76
37832;BME280;23671;38.090;-122.570;2023-02-18T07:15:32;101812.44;;;7.98;60.49
37832;BME280;23671;38.090;-122.570;2023-02-18T07:18:00;101807.28;;;7.97;60.58
37832;BME280;23671;38.090;-122.570;2023-02-18T07:20:27;101816.34;;;7.91;59.74
37832;BME280;23671;38.090;-122.570;2023-02-18T07:22:54;101816.34;;;7.91;60.18
37832;BME280;23671;38.090;-122.570;2023-02-18T07:25:21;101822.66;;;7.87;59.80
37832;BME280;23671;38.090;-122.570;2023-02-18T07:27:49;101826.28;;;7.85;59.94
37832;BME280;23671;38.090;-122.570;2023-02-18T07:30:17;101828.22;;;7.81;60.37
37832;BME280;23671;38.090;-122.570;2023-02-18T07:32:44;101830.16;;;7.78;60.28
37832;BME280;23671;38.090;-122.570;2023-02-18T07:35:13;101830.16;;;7.78;60.07
37832;BME280;23671;38.090;-122.570;2023-02-18T07:37:47;101835.66;;;7.73;59.92
37832;BME280;23671;38.090;-122.570;2023-02-18T07:40:17;101827.16;;;7.68;60.34
37832;BME280;23671;38.090;-122.570;2023-02-18T07:42:45;101827.22;;;7.67;60.20
37832;BME280;23671;38.090;-122.570;2023-02-18T07:45:12;101837.03;;;7.63;60.54
37832;BME280;23671;38.090;-122.570;2023-02-18T07:47:39;101844.97;;;7.62;60.39
37832;BME280;23671;38.090;-122.570;2023-02-18T07:50:08;101841.44;;;7.63;60.28
37832;BME280;23671;38.090;-122.570;2023-02-18T07:52:36;101838.13;;;7.59;60.36
37832;BME280;23671;38.090;-122.570;2023-02-18T07:55:03;101839.19;;;7.55;60.16
37832;BME280;23671;38.090;-122.570;2023-02-18T07:57:30;101838.25;;;7.56;59.99
37832;BME280;23671;38.090;-122.570;2023-02-18T07:59:57;101845.44;;;7.53;59.81
37832;BME280;23671;38.090;-122.570;2023-02-18T08:02:25;101840.09;;;7.54;59.87
37832;BME280;23671;38.090;-122.570;2023-02-18T08:04:52;101841.81;;;7.55;59.78
37832;BME280;23671;38.090;-122.570;2023-02-18T08:07:20;101834.22;;;7.49;59.74
37832;BME280;23671;38.090;-122.570;2023-02-18T08:09:48;101841.34;;;7.47;59.94
37832;BME280;23671;38.090;-122.570;2023-02-18T08:12:16;101834.41;;;7.46;59.86
37832;BME280;23671;38.090;-122.570;2023-02-18T08:14:43;101840.84;;;7.39;59.82
37832;BME280;23671;38.090;-122.570;2023-02-18T08:17:10;101837.34;;;7.38;59.62
37832;BME280;23671;38.090;-122.570;2023-02-18T08:19:37;101829.44;;;7.40;60.16
37832;BME280;23671;38.090;-122.570;2023-02-18T08:22:04;101833.81;;;7.40;59.68
37832;BME280;23671;38.090;-122.570;2023-02-18T08:24:31;101840.84;;;7.39;59.59
37832;BME280;23671;38.090;-122.570;2023-02-18T08:26:58;101834.81;;;7.37;59.37
37832;BME280;23671;38.090;-122.570;2023-02-18T08:29:25;101838.59;;;7.31;59.63
37832;BME280;23671;38.090;-122.570;2023-02-18T08:31:52;101845.69;;;7.29;59.59
37832;BME280;23671;38.090;-122.570;2023-02-18T08:34:20;101843.31;;;7.25;60.02
37832;BME280;23671;38.090;-122.570;2023-02-18T08:36:47;101852.94;;;7.24;59.61
37832;BME280;23671;38.090;-122.570;2023-02-18T08:39:14;101847.00;;;7.21;59.56
37832;BME280;23671;38.090;-122.570;2023-02-18T08:41:41;101848.69;;;7.22;59.74
37832;BME280;23671;38.090;-122.570;2023-02-18T08:44:08;101842.56;;;7.21;59.56
37832;BME280;23671;38.090;-122.570;2023-02-18T08:46:35;101844.41;;;7.19;59.49
37832;BME280;23671;38.090;-122.570;2023-02-18T08:49:03;101844.38;;;7.21;59.18
37832;BME280;23671;38.090;-122.570;2023-02-18T08:51:30;101830.50;;;7.17;59.41
37832;BME280;23671;38.090;-122.570;2023-02-18T08:53:57;101829.59;;;7.18;59.09
37832;BME280;23671;38.090;-122.570;2023-02-18T08:56:24;101830.59;;;7.16;59.29
37832;BME280;23671;38.090;-122.570;2023-02-18T08:58:51;101829.19;;;7.09;59.36
37832;BME280;23671;38.090;-122.570;2023-02-18T09:01:18;101826.63;;;7.07;59.34
37832;BME280;23671;38.090;-122.570;2023-02-18T09:03:46;101825.91;;;7.04;59.33
37832;BME280;23671;38.090;-122.570;2023-02-18T09:06:14;101826.22;;;6.98;59.39
37832;BME280;23671;38.090;-122.570;2023-02-18T09:08:41;101833.94;;;7.01;59.32
37832;BME280;23671;38.090;-122.570;2023-02-18T09:11:09;101840.13;;;7.00;59.06
37832;BME280;23671;38.090;-122.570;2023-02-18T09:13:36;101838.28;;;7.02;59.20
37832;BME280;23671;38.090;-122.570;2023-02-18T09:16:07;101836.75;;;6.96;59.30
37832;BME280;23671;38.090;-122.570;2023-02-18T09:18:35;101825.56;;;6.93;59.21
37832;BME280;23671;38.090;-122.570;2023-02-18T09:21:03;101824.78;;;6.91;59.21
37832;BME280;23671;38.090;-122.570;2023-02-18T09:23:31;101829.19;;;6.90;59.23
37832;BME280;23671;38.090;-122.570;2023-02-18T09:25:59;101828.34;;;6.90;59.11
37832;BME280;23671;38.090;-122.570;2023-02-18T09:28:26;101831.94;;;6.87;58.99
37832;BME280;23671;38.090;-122.570;2023-02-18T09:30:53;101832.88;;;6.86;59.31
37832;BME280;23671;38.090;-122.570;2023-02-18T09:33:20;101836.56;;;6.82;58.99
37832;BME280;23671;38.090;-122.570;2023-02-18T09:35:48;101840.03;;;6.83;58.99
37832;BME280;23671;38.090;-122.570;2023-02-18T09:38:16;101840.03;;;6.83;58.84
37832;BME280;23671;38.090;-122.570;2023-02-18T09:40:49;101848.84;;;6.82;58.93
37832;BME280;23671;38.090;-122.570;2023-02-18T09:43:40;101835.81;;;6.79;58.99
37832;BME280;23671;38.090;-122.570;2023-02-18T09:47:05;101847.19;;;6.79;58.88
37832;BME280;23671;38.090;-122.570;2023-02-18T09:49:13;101847.25;;;6.78;58.63
37832;BME280;23671;38.090;-122.570;2023-02-18T09:51:42;101840.38;;;6.75;58.95
37832;BME280;23671;38.090;-122.570;2023-02-18T09:54:13;101838.75;;;6.73;58.92
37832;BME280;23671;38.090;-122.570;2023-02-18T09:56:41;101836.97;;;6.73;58.66
37832;BME280;23671;38.090;-122.570;2023-02-18T09:59:19;101846.03;;;6.66;58.76
37832;BME280;23671;38.090;-122.570;2023-02-18T10:01:50;101848.75;;;6.65;58.81
37832;BME280;23671;38.090;-122.570;2023-02-18T10:04:23;101843.75;;;6.59;59.01
37832;BME280;23671;38.090;-122.570;2023-02-18T10:06:53;101846.31;;;6.60;58.90
37832;BME280;23671;38.090;-122.570;2023-02-18T10:09:24;101832.41;;;6.58;58.82
37832;BME280;23671;38.090;-122.570;2023-02-18T10:12:13;101837.88;;;6.54;58.68
37832;BME280;23671;38.090;-122.570;2023-02-18T10:14:43;101844.97;;;6.52;58.91
37832;BME280;23671;38.090;-122.570;2023-02-18T10:17:14;101855.50;;;6.50;58.77
37832;BME280;23671;38.090;-122.570;2023-02-18T10:19:45;101849.34;;;6.51;58.76
37832;BME280;23671;38.090;-122.570;2023-02-18T10:22:14;101838.94;;;6.50;58.73
37832;BME280;23671;38.090;-122.570;2023-02-18T10:24:52;101839.22;;;6.43;58.93
37832;BME280;23671;38.090;-122.570;2023-02-18T10:27:26;101831.41;;;6.42;58.81
37832;BME280;23671;38.090;-122.570;2023-02-18T10:30:01;101819.28;;;6.39;58.78
37832;BME280;23671;38.090;-122.570;2023-02-18T10:32:37;101817.78;;;6.34;58.93
37832;BME280;23671;38.090;-122.570;2023-02-18T10:37:52;101826.81;;;6.27;58.97
37832;BME280;23671;38.090;-122.570;2023-02-18T10:40:57;101828.53;;;6.28;58.78
37832;BME280;23671;38.090;-122.570;2023-02-18T10:43:52;101833.97;;;6.23;58.98
37832;BME280;23671;38.090;-122.570;2023-02-18T10:52:16;101805.38;;;6.17;58.97
37832;BME280;23671;38.090;-122.570;2023-02-18T10:55:12;101791.63;;;6.12;59.07
37832;BME280;23671;38.090;-122.570;2023-02-18T10:57:51;101798.84;;;6.07;59.19
37832;BME280;23671;38.090;-122.570;2023-02-18T11:00:26;101799.75;;;6.06;58.89
37832;BME280;23671;38.090;-122.570;2023-02-18T11:03:22;101783.41;;;6.01;59.52
37832;BME280;23671;38.090;-122.570;2023-02-18T11:05:55;101782.66;;;5.98;59.39
37832;BME280;23671;38.090;-122.570;2023-02-18T11:08:26;101776.50;;;5.99;59.13
37832;BME280;23671;38.090;-122.570;2023-02-18T11:10:54;101784.44;;;5.97;59.27
37832;BME280;23671;38.090;-122.570;2023-02-18T11:13:29;101790.00;;;5.90;59.59
37832;BME280;23671;38.090;-122.570;2023-02-18T11:16:03;101783.75;;;5.92;59.23
37832;BME280;23671;38.090;-122.570;2023-02-18T11:18:44;101782.94;;;5.92;59.15
37832;BME280;23671;38.090;-122.570;2023-02-18T11:21:33;101798.69;;;5.90;59.07
37832;BME280;23671;38.090;-122.570;2023-02-18T11:24:14;101774.41;;;5.87;59.01
37832;BME280;23671;38.090;-122.570;2023-02-18T11:26:42;101782.44;;;5.82;59.35
37832;BME280;23671;38.090;-122.570;2023-02-18T11:29:21;101783.28;;;5.83;59.15
37832;BME280;23671;38.090;-122.570;2023-02-18T11:31:52;101787.94;;;5.76;59.43
37832;BME280;23671;38.090;-122.570;2023-02-18T11:34:23;101775.63;;;5.78;59.32
37832;BME280;23671;38.090;-122.570;2023-02-18T11:36:52;101792.50;;;5.71;59.11
37832;BME280;23671;38.090;-122.570;2023-02-18T11:39:22;101795.25;;;5.68;59.37
37832;BME280;23671;38.090;-122.570;2023-02-18T11:42:03;101801.22;;;5.72;58.96
37832;BME280;23671;38.090;-122.570;2023-02-18T11:44:40;101814.50;;;5.67;59.40
37832;BME280;23671;38.090;-122.570;2023-02-18T11:49:57;101818.22;;;5.62;59.28
37832;BME280;23671;38.090;-122.570;2023-02-18T11:52:32;101813.94;;;5.61;59.45
37832;BME280;23671;38.090;-122.570;2023-02-18T11:55:16;101812.34;;;5.57;59.04
37832;BME280;23671;38.090;-122.570;2023-02-18T12:03:03;101791.81;;;5.46;59.29
37832;BME280;23671;38.090;-122.570;2023-02-18T12:05:33;101793.63;;;5.44;59.44
37832;BME280;23671;38.090;-122.570;2023-02-18T12:08:14;101797.13;;;5.44;59.57
37832;BME280;23671;38.090;-122.570;2023-02-18T12:11:16;101793.72;;;5.42;59.81
37832;BME280;23671;38.090;-122.570;2023-02-18T12:13:56;101780.13;;;5.33;59.98
37832;BME280;23671;38.090;-122.570;2023-02-18T12:19:48;101782.03;;;5.29;60.04
37832;BME280;23671;38.090;-122.570;2023-02-18T12:22:42;101795.19;;;5.28;59.43
37832;BME280;23671;38.090;-122.570;2023-02-18T12:25:30;101791.78;;;5.26;59.50
37832;BME280;23671;38.090;-122.570;2023-02-18T12:28:23;101798.78;;;5.25;59.57
37832;BME280;23671;38.090;-122.570;2023-02-18T12:31:06;101787.59;;;5.22;59.67
37832;BME280;23671;38.090;-122.570;2023-02-18T12:36:37;101785.94;;;5.19;60.00
37832;BME280;23671;38.090;-122.570;2023-02-18T12:45:02;101783.69;;;5.10;60.07
37832;BME280;23671;38.090;-122.570;2023-02-18T12:50:29;101785.59;;;5.05;60.10
37832;BME280;23671;38.090;-122.570;2023-02-18T12:53:21;101780.56;;;5.01;60.05
37832;BME280;23671;38.090;-122.570;2023-02-18T12:56:06;101777.03;;;5.02;60.16
37832;BME280;23671;38.090;-122.570;2023-02-18T13:07:21;101769.00;;;4.85;60.41
37832;BME280;23671;38.090;-122.570;2023-02-18T13:10:09;101768.88;;;4.88;59.88
37832;BME280;23671;38.090;-122.570;2023-02-18T13:13:03;101793.56;;;4.81;60.35
37832;BME280;23671;38.090;-122.570;2023-02-18T13:15:45;101781.22;;;4.84;60.43
37832;BME280;23671;38.090;-122.570;2023-02-18T13:18:36;101777.88;;;4.81;60.33
37832;BME280;23671;38.090;-122.570;2023-02-18T13:21:08;101774.47;;;4.79;60.24
37832;BME280;23671;38.090;-122.570;2023-02-18T13:24:03;101769.16;;;4.80;59.79
37832;BME280;23671;38.090;-122.570;2023-02-18T13:26:33;101772.63;;;4.81;59.61
37832;BME280;23671;38.090;-122.570;2023-02-18T13:29:16;101779.88;;;4.74;60.27
37832;BME280;23671;38.090;-122.570;2023-02-18T13:32:10;101776.41;;;4.74;59.84
37832;BME280;23671;38.090;-122.570;2023-02-18T13:37:59;101781.75;;;4.71;60.29
37832;BME280;23671;38.090;-122.570;2023-02-18T13:40:30;101788.19;;;4.62;60.04
37832;BME280;23671;38.090;-122.570;2023-02-18T13:46:13;101777.72;;;4.62;60.24
37832;BME280;23671;38.090;-122.570;2023-02-18T13:49:10;101770.91;;;4.58;60.20
37832;BME280;23671;38.090;-122.570;2023-02-18T13:51:46;101772.00;;;4.52;60.07
37832;BME280;23671;38.090;-122.570;2023-02-18T13:54:47;101774.47;;;4.55;60.36
37832;BME280;23671;38.090;-122.570;2023-02-18T13:57:20;101780.63;;;4.54;60.25
37832;BME280;23671;38.090;-122.570;2023-02-18T14:00:01;101786.81;;;4.52;60.33
37832;BME280;23671;38.090;-122.570;2023-02-18T14:02:34;101787.78;;;4.49;60.39
37832;BME280;23671;38.090;-122.570;2023-02-18T14:10:03;101803.72;;;4.43;60.04
37832;BME280;23671;38.090;-122.570;2023-02-18T14:13:02;101785.44;;;4.42;60.53
37832;BME280;23671;38.090;-122.570;2023-02-18T14:15:55;101792.72;;;4.34;60.58
37832;BME280;23671;38.090;-122.570;2023-02-18T14:18:36;101794.28;;;4.39;60.24
37832;BME280;23671;38.090;-122.570;2023-02-18T14:21:22;101809.16;;;4.37;60.17
37832;BME280;23671;38.090;-122.570;2023-02-18T14:24:02;101810.06;;;4.36;60.39
37832;BME280;23671;38.090;-122.570;2023-02-18T14:26:33;101827.63;;;4.33;60.54
37832;BME280;23671;38.090;-122.570;2023-02-18T14:29:13;101821.59;;;4.31;60.38
37832;BME280;23671;38.090;-122.570;2023-02-18T14:31:50;101831.31;;;4.27;60.49
37832;BME280;23671;38.090;-122.570;2023-02-18T14:37:24;101829.81;;;4.20;60.61
37832;BME280;23671;38.090;-122.570;2023-02-18T14:40:49;101823.56;;;4.24;60.48
37832;BME280;23671;38.090;-122.570;2023-02-18T14:50:54;101826.41;;;4.18;60.15
37832;BME280;23671;38.090;-122.570;2023-02-18T14:53:26;101824.00;;;4.12;60.53
37832;BME280;23671;38.090;-122.570;2023-02-18T14:55:58;101831.66;;;4.17;60.64